Time;durP1;ratioP1;P1;durP2;ratioP2;P2;SDS_P1;SDS_P2;PMS_P1;PMS_P2;Temp;Humidity;BMP_temperature;BMP_pressure;BME280_temperature;BME280_humidity;BME280_pressure;Samples;Min_cycle;Max_cycle;Signal;HPM_P1;HPM_P2
2022/08/18 00:00:15;;;;;;;3.03;2.00;;;24.00;71.10;;;;;;5091246;28;20044;-63
2022/08/18 00:02:41;;;;;;;6.03;2.53;;;24.00;71.10;;;;;;5092293;28;20052;-63
2022/08/18 00:05:07;;;;;;;3.47;2.13;;;24.00;71.10;;;;;;5107987;28;20526;-63
2022/08/18 00:07:33;;;;;;;3.05;1.95;;;24.00;71.10;;;;;;5090899;28;20550;-63
2022/08/18 00:09:59;;;;;;;3.47;2.15;;;24.00;71.00;;;;;;5094557;28;20150;-63
2022/08/18 00:12:27;;;;;;;4.65;2.30;;;24.00;71.00;;;;;;5096246;28;20039;-63
2022/08/18 00:14:53;;;;;;;3.17;2.00;;;24.00;71.10;;;;;;5095888;28;20052;-63
2022/08/18 00:17:19;;;;;;;3.60;2.13;;;24.00;71.10;;;;;;5095902;28;20042;-62
2022/08/18 00:19:44;;;;;;;3.50;2.00;;;24.00;71.00;;;;;;5095676;28;20036;-63
2022/08/18 00:22:11;;;;;;;3.58;2.00;;;24.00;71.00;;;;;;5096173;28;20503;-63
2022/08/18 00:24:37;;;;;;;3.45;2.00;;;23.90;71.00;;;;;;5095848;28;20048;-63
2022/08/18 00:27:04;;;;;;;4.13;2.33;;;23.90;71.00;;;;;;5095634;28;20040;-63
2022/08/18 00:29:30;;;;;;;3.67;2.00;;;23.90;71.00;;;;;;5095584;28;20480;-63
2022/08/18 00:31:55;;;;;;;3.83;2.10;;;24.00;71.60;;;;;;5095995;28;20048;-63
2022/08/18 00:34:21;;;;;;;4.10;1.77;;;23.90;71.00;;;;;;5094245;28;20044;-63
2022/08/18 00:36:47;;;;;;;2.88;2.08;;;23.90;70.90;;;;;;5096406;28;20048;-63
2022/08/18 00:39:12;;;;;;;4.13;2.20;;;23.90;70.90;;;;;;5096326;28;20063;-63
2022/08/18 00:41:38;;;;;;;3.30;2.00;;;23.90;70.90;;;;;;5095547;28;20055;-64
2022/08/18 00:44:03;;;;;;;2.95;2.10;;;23.90;70.90;;;;;;5094923;28;20036;-63
2022/08/18 00:46:32;;;;;;;3.53;2.10;;;23.90;71.00;;;;;;5095645;28;20051;-63
2022/08/18 00:48:57;;;;;;;2.80;1.92;;;23.90;70.90;;;;;;5095487;28;20044;-63
2022/08/18 00:51:24;;;;;;;4.18;2.05;;;23.90;70.90;;;;;;5095897;28;20040;-64
2022/08/18 00:53:55;;;;;;;3.10;2.20;;;23.90;70.90;;;;;;5096292;28;20040;-63
2022/08/18 00:56:27;;;;;;;3.67;2.03;;;23.90;70.90;;;;;;5094822;28;20040;-63
2022/08/18 00:58:58;;;;;;;2.95;1.90;;;23.90;70.90;;;;;;5095011;28;20050;-63
2022/08/18 01:01:25;;;;;;;3.47;2.20;;;23.90;70.90;;;;;;5111809;27;20044;-64
2022/08/18 01:03:53;;;;;;;3.30;2.03;;;23.90;70.80;;;;;;5093804;28;20083;-63
2022/08/18 01:06:41;;;;;;;3.72;1.85;;;23.90;70.90;;;;;;5111951;28;20518;-63
2022/08/18 01:09:07;;;;;;;;;;;23.90;70.90;;;;;;5077217;28;20052;-63
2022/08/18 01:11:35;;;;;;;3.22;2.03;;;23.80;70.70;;;;;;5095579;28;19926;-63
2022/08/18 01:14:01;;;;;;;5.10;2.33;;;23.90;70.90;;;;;;5095689;28;20044;-63
2022/08/18 01:21:59;;;;;;;4.15;2.33;;;23.90;70.80;;;;;;5095568;28;20052;-63
2022/08/18 01:27:17;;;;;;;2.50;1.98;;;23.80;70.80;;;;;;5108541;28;20431;-63
2022/08/18 01:29:46;;;;;;;2.85;1.63;;;23.80;70.80;;;;;;5093892;28;20578;-64
2022/08/18 01:32:20;;;;;;;3.35;1.80;;;23.80;70.80;;;;;;5094357;28;20052;-63
2022/08/18 01:34:47;;;;;;;2.92;1.85;;;23.90;70.80;;;;;;5095087;28;20563;-64
2022/08/18 01:37:21;;;;;;;2.90;1.90;;;23.80;70.80;;;;;;5094481;28;20080;-63
2022/08/18 01:39:46;;;;;;;2.85;1.92;;;23.80;70.70;;;;;;5095400;28;20094;-63
2022/08/18 01:42:13;;;;;;;3.50;1.88;;;23.80;70.70;;;;;;5094909;28;20080;-63
2022/08/18 01:44:42;;;;;;;2.92;1.80;;;23.80;70.70;;;;;;5094282;28;20052;-63
2022/08/18 01:47:10;;;;;;;2.78;1.92;;;23.80;70.70;;;;;;5095168;28;20043;-63
2022/08/18 01:49:37;;;;;;;2.53;1.70;;;23.80;70.70;;;;;;5094570;28;20096;-63
2022/08/18 01:52:05;;;;;;;4.82;2.13;;;23.80;70.70;;;;;;5094376;28;20507;-63
2022/08/18 01:54:31;;;;;;;3.42;1.85;;;23.80;70.70;;;;;;5094599;28;20488;-63
2022/08/18 01:56:56;;;;;;;3.97;2.15;;;23.80;70.70;;;;;;5095080;28;20047;-63
2022/08/18 01:59:22;;;;;;;2.50;1.80;;;23.80;70.70;;;;;;5093518;28;20040;-63
2022/08/18 02:01:47;;;;;;;3.72;1.77;;;23.80;70.70;;;;;;5093848;28;20479;-63
2022/08/18 02:04:14;;;;;;;3.53;1.77;;;23.80;70.70;;;;;;5093857;28;20040;-63
2022/08/18 02:06:40;;;;;;;3.10;1.85;;;23.70;70.60;;;;;;5093642;28;20097;-63
2022/08/18 02:09:06;;;;;;;2.42;1.80;;;23.80;70.60;;;;;;5094490;28;20060;-63
2022/08/18 02:11:31;;;;;;;3.20;1.77;;;23.80;70.60;;;;;;5094297;28;20076;-63
2022/08/18 02:13:57;;;;;;;3.40;1.50;;;23.80;70.60;;;;;;5092314;28;20395;-63
2022/08/18 02:16:23;;;;;;;2.85;1.88;;;23.80;70.60;;;;;;5094143;28;20066;-63
2022/08/18 02:18:48;;;;;;;3.28;2.20;;;23.80;70.60;;;;;;5094367;28;20079;-63
2022/08/18 02:21:16;;;;;;;2.63;1.73;;;23.80;70.60;;;;;;5093386;28;20499;-63
2022/08/18 02:23:42;;;;;;;;;;;23.80;70.60;;;;;;5094671;28;20048;-64
2022/08/18 02:26:10;;;;;;;2.63;1.70;;;23.70;70.40;;;;;;5094350;28;19926;-63
2022/08/18 02:28:36;;;;;;;2.97;1.70;;;23.70;70.60;;;;;;5093577;28;20501;-63
2022/08/18 02:31:06;;;;;;;2.88;1.90;;;23.70;70.60;;;;;;5094273;28;20069;-64
2022/08/18 02:33:31;;;;;;;3.10;1.73;;;23.70;70.50;;;;;;5091186;28;20059;-64
2022/08/18 02:35:57;;;;;;;3.05;1.80;;;23.70;70.50;;;;;;5094267;28;20044;-63
2022/08/18 02:38:22;;;;;;;3.53;2.30;;;23.70;70.50;;;;;;5093973;28;20067;-63
2022/08/18 02:40:54;;;;;;;2.28;1.77;;;23.70;70.50;;;;;;5093433;28;20111;-63
2022/08/18 02:43:20;;;;;;;3.60;1.90;;;23.70;70.50;;;;;;5093796;28;20047;-64
2022/08/18 02:45:45;;;;;;;3.67;2.05;;;23.70;70.50;;;;;;5093864;28;20047;-63
2022/08/18 02:48:11;;;;;;;2.72;1.90;;;23.70;70.40;;;;;;5093238;28;20040;-63
2022/08/18 02:50:44;;;;;;;2.78;1.83;;;23.70;70.50;;;;;;5093181;28;20445;-64
2022/08/18 02:53:12;;;;;;;3.30;2.00;;;23.70;70.40;;;;;;5094013;28;20056;-63
2022/08/18 02:55:37;;;;;;;2.78;1.80;;;23.70;70.40;;;;;;5092856;28;20036;-63
2022/08/18 02:58:03;;;;;;;2.72;1.70;;;23.70;70.50;;;;;;5093628;28;20047;-63
2022/08/18 03:00:28;;;;;;;2.33;1.75;;;23.70;70.50;;;;;;5093537;28;20128;-63
2022/08/18 03:02:54;;;;;;;2.45;1.98;;;23.70;70.50;;;;;;5092976;28;20122;-63
2022/08/18 03:05:19;;;;;;;3.05;1.90;;;23.70;70.50;;;;;;5093122;28;20123;-63
2022/08/18 03:07:45;;;;;;;3.00;1.88;;;23.70;70.40;;;;;;5093601;28;20115;-63
2022/08/18 03:10:12;;;;;;;4.03;1.73;;;23.70;70.50;;;;;;5092699;28;20055;-63
2022/08/18 03:12:40;;;;;;;2.67;1.90;;;23.70;70.50;;;;;;5093375;28;20044;-64
2022/08/18 03:15:06;;;;;;;2.20;1.67;;;23.70;70.40;;;;;;5093163;28;20124;-63
2022/08/18 03:17:34;;;;;;;2.67;1.75;;;23.70;70.40;;;;;;5092414;28;20085;-63
2022/08/18 03:19:59;;;;;;;2.85;1.90;;;23.70;70.40;;;;;;5092221;28;20047;-63
2022/08/18 03:22:25;;;;;;;3.92;1.92;;;23.70;70.40;;;;;;5092402;28;20044;-63
2022/08/18 03:24:51;;;;;;;2.97;1.60;;;23.70;70.40;;;;;;5091866;28;20048;-64
2022/08/18 03:27:16;;;;;;;2.47;1.77;;;23.70;70.40;;;;;;5093031;28;20541;-63
2022/08/18 03:29:42;;;;;;;2.92;2.05;;;23.70;70.40;;;;;;5091974;28;20060;-63
2022/08/18 03:32:07;;;;;;;3.25;1.95;;;23.70;70.50;;;;;;5091929;28;20048;-64
2022/08/18 03:34:33;;;;;;;3.83;1.58;;;23.70;70.40;;;;;;5092390;28;20451;-63
2022/08/18 03:36:58;;;;;;;3.13;1.77;;;23.70;70.40;;;;;;5092437;28;20044;-63
2022/08/18 03:39:26;;;;;;;3.90;2.00;;;23.70;70.40;;;;;;5092457;28;20047;-63
2022/08/18 03:41:53;;;;;;;3.45;1.67;;;23.70;70.40;;;;;;5093144;28;20040;-64
2022/08/18 03:44:18;;;;;;;2.80;1.80;;;23.70;70.40;;;;;;5090024;28;20044;-63
2022/08/18 03:46:44;;;;;;;3.17;2.25;;;23.70;70.40;;;;;;5091866;28;20123;-63
2022/08/18 03:49:10;;;;;;;2.88;1.98;;;23.60;70.30;;;;;;5092840;28;20365;-63
2022/08/18 03:51:35;;;;;;;2.78;1.63;;;23.60;70.40;;;;;;5091729;28;20549;-63
2022/08/18 03:54:02;;;;;;;3.53;1.98;;;23.60;70.40;;;;;;5092863;28;20542;-63
2022/08/18 03:56:33;;;;;;;2.78;1.70;;;23.70;70.40;;;;;;5092637;28;20135;-63
2022/08/18 03:59:06;;;;;;;2.72;1.83;;;23.60;70.40;;;;;;5092243;28;20040;-63
2022/08/18 04:01:32;;;;;;;3.47;1.60;;;23.70;70.40;;;;;;5092507;28;20052;-63
2022/08/18 04:04:01;;;;;;;2.15;1.50;;;23.60;70.30;;;;;;5092586;28;20051;-63
2022/08/18 04:06:39;;;;;;;2.95;1.73;;;23.60;70.30;;;;;;5090988;28;20040;-63
2022/08/18 04:09:05;;;;;;;2.53;1.70;;;23.60;70.20;;;;;;5092579;28;20515;-63
2022/08/18 04:11:35;;;;;;;2.33;1.70;;;23.60;70.20;;;;;;5092268;28;20048;-63
2022/08/18 04:14:01;;;;;;;2.70;1.75;;;23.60;70.20;;;;;;5092138;28;20083;-63
2022/08/18 04:16:27;;;;;;;3.10;2.20;;;23.60;70.30;;;;;;5092167;28;20071;-63
2022/08/18 04:18:54;;;;;;;2.75;1.80;;;23.60;70.30;;;;;;5091769;28;20043;-63
2022/08/18 04:21:20;;;;;;;2.90;1.60;;;23.60;70.30;;;;;;5090959;28;20044;-63
2022/08/18 04:23:46;;;;;;;3.17;2.03;;;23.60;70.20;;;;;;5092239;28;20097;-63
2022/08/18 04:26:11;;;;;;;3.53;1.60;;;23.70;70.30;;;;;;5091966;28;20052;-63
2022/08/18 04:28:37;;;;;;;3.38;1.77;;;23.60;70.20;;;;;;5092028;28;20060;-63
2022/08/18 04:31:07;;;;;;;3.65;1.90;;;23.60;70.30;;;;;;5092343;28;20036;-63
2022/08/18 04:33:33;;;;;;;4.75;1.98;;;23.60;70.30;;;;;;5091178;28;20142;-63
2022/08/18 04:36:01;;;;;;;3.00;1.50;;;23.60;70.30;;;;;;5092546;28;20127;-63
2022/08/18 04:38:27;;;;;;;4.25;1.98;;;23.60;70.30;;;;;;5090707;28;20052;-63
2022/08/18 04:40:52;;;;;;;3.22;1.73;;;23.60;70.20;;;;;;5091490;28;20044;-63
2022/08/18 04:43:18;;;;;;;2.78;1.75;;;23.60;70.20;;;;;;5092017;28;20039;-64
2022/08/18 04:45:47;;;;;;;3.85;1.70;;;23.60;70.20;;;;;;5091284;28;20044;-64
2022/08/18 04:48:14;;;;;;;2.38;1.80;;;23.60;70.20;;;;;;5091673;28;20044;-64
2022/08/18 04:50:40;;;;;;;2.92;1.98;;;23.60;70.20;;;;;;5090816;28;20051;-64
2022/08/18 04:55:50;;;;;;;3.45;1.83;;;23.60;70.20;;;;;;5093622;28;20037;-64
2022/08/18 04:58:17;;;;;;;2.10;1.67;;;23.60;70.20;;;;;;5095981;28;20087;-65
2022/08/18 05:00:44;;;;;;;3.13;1.77;;;23.60;70.20;;;;;;5095879;28;20461;-64
2022/08/18 05:03:10;;;;;;;3.28;1.52;;;23.60;70.20;;;;;;5095360;28;20039;-64
2022/08/18 05:05:35;;;;;;;3.22;1.80;;;23.60;70.20;;;;;;5095332;28;20468;-64
2022/08/18 05:08:01;;;;;;;3.58;1.90;;;23.60;70.20;;;;;;5095059;28;20086;-64
2022/08/18 05:10:26;;;;;;;2.63;1.58;;;23.60;70.20;;;;;;5095342;28;20126;-64
2022/08/18 05:12:52;;;;;;;3.33;1.60;;;23.60;70.30;;;;;;5095636;28;20047;-64
2022/08/18 05:15:18;;;;;;;3.30;1.92;;;23.50;70.20;;;;;;5094789;28;20044;-64
2022/08/18 05:17:44;;;;;;;2.50;1.60;;;23.60;70.30;;;;;;5095798;28;20028;-64
2022/08/18 05:20:10;;;;;;;2.83;1.80;;;23.60;70.30;;;;;;5095755;28;20044;-64
2022/08/18 05:22:39;;;;;;;2.10;1.67;;;23.60;70.30;;;;;;5094530;28;20165;-64
2022/08/18 05:25:06;;;;;;;3.22;1.90;;;23.60;70.30;;;;;;5095447;28;20092;-64
2022/08/18 05:27:33;;;;;;;3.47;2.10;;;23.60;70.30;;;;;;5094473;28;20051;-64
2022/08/18 05:29:59;;;;;;;2.30;1.58;;;23.50;70.30;;;;;;5094361;28;20052;-64
2022/08/18 05:32:30;;;;;;;3.05;1.70;;;23.50;70.30;;;;;;5095247;28;20048;-64
2022/08/18 05:34:56;;;;;;;2.13;1.73;;;23.50;70.30;;;;;;5095320;28;20070;-64
2022/08/18 05:37:39;;;;;;;2.08;1.42;;;23.50;70.30;;;;;;5094512;28;20498;-64
2022/08/18 05:40:07;;;;;;;3.70;1.75;;;23.50;70.20;;;;;;5077984;28;20048;-64
2022/08/18 05:42:36;;;;;;;2.42;1.73;;;23.50;70.30;;;;;;5094789;28;20399;-64
2022/08/18 05:45:06;;;;;;;4.43;1.92;;;23.50;70.20;;;;;;5076442;28;20506;-64
2022/08/18 05:47:32;;;;;;;3.70;1.90;;;23.60;70.30;;;;;;5095332;28;20036;-64
2022/08/18 05:50:07;;;;;;;3.45;1.70;;;23.50;70.30;;;;;;5127937;27;20044;-64
2022/08/18 05:52:58;;;;;;;3.90;1.98;;;23.50;70.30;;;;;;5093539;28;20101;-64
2022/08/18 05:58:24;;;;;;;3.13;1.83;;;23.50;70.30;;;;;;5079218;28;20052;-64
2022/08/18 06:00:52;;;;;;;;;;;23.50;70.20;;;;;;5094049;28;20376;-63
2022/08/18 06:03:21;;;;;;;;;;;23.50;70.20;;;;;;5094236;28;19928;-63
2022/08/18 06:06:01;;;;;;;3.05;1.90;;;23.50;70.30;;;;;;5092306;28;20500;-61
2022/08/18 06:08:37;;;;;;;4.25;2.45;;;23.50;70.50;;;;;;5093727;28;20119;-61
2022/08/18 06:11:03;;;;;;;4.55;2.10;;;23.50;70.40;;;;;;5093621;28;20108;-61
2022/08/18 06:13:29;;;;;;;5.85;3.03;;;23.50;70.40;;;;;;5075663;28;20465;-60
2022/08/18 06:16:20;;;;;;;10.02;3.85;;;23.50;70.50;;;;;;5076357;28;20606;-61
2022/08/18 06:18:57;;;;;;;11.40;4.20;;;23.50;70.50;;;;;;5076558;28;20433;-60
2022/08/18 06:21:53;;;;;;;8.38;3.38;;;23.50;70.70;;;;;;5092364;28;20097;-61
2022/08/18 06:24:43;;;;;;;10.20;4.07;;;23.50;70.90;;;;;;5094165;28;20075;-61
2022/08/18 06:27:32;;;;;;;7.55;3.78;;;23.50;70.70;;;;;;5092296;28;20089;-61
2022/08/18 06:30:09;;;;;;;11.55;4.55;;;23.50;70.70;;;;;;5092950;28;20182;-61
2022/08/18 06:33:12;;;;;;;9.50;3.63;;;23.50;71.10;;;;;;5092115;28;20048;-60
2022/08/18 06:35:45;;;;;;;8.57;4.03;;;23.50;71.10;;;;;;5093875;28;20052;-63
2022/08/18 06:41:34;;;;;;;10.20;4.32;;;23.50;71.40;;;;;;5091925;28;20048;-64
2022/08/18 06:44:04;;;;;;;7.82;3.83;;;23.50;71.60;;;;;;5092659;28;20075;-64
2022/08/18 06:47:05;;;;;;;11.52;3.90;;;23.50;71.70;;;;;;5092810;28;20044;-64
2022/08/18 06:49:38;;;;;;;9.35;3.50;;;23.50;71.70;;;;;;5084271;28;20403;-64
2022/08/18 06:52:35;;;;;;;8.52;3.60;;;23.60;71.80;;;;;;5090911;28;20055;-63
2022/08/18 06:55:02;;;;;;;8.63;3.70;;;23.60;71.90;;;;;;5092313;28;20044;-61
2022/08/18 06:57:30;;;;;;;8.52;3.22;;;23.60;71.90;;;;;;5092556;28;20040;-63
2022/08/18 06:59:59;;;;;;;7.30;3.10;;;23.60;72.00;;;;;;5093964;28;20039;-64
2022/08/18 07:02:54;;;;;;;7.60;3.00;;;23.60;71.90;;;;;;5091510;28;20811;-64
2022/08/18 07:05:28;;;;;;;9.43;3.45;;;23.60;71.90;;;;;;5080533;28;20052;-65
2022/08/18 07:08:09;;;;;;;7.53;3.47;;;23.60;71.90;;;;;;5092667;28;20052;-64
2022/08/18 07:10:49;;;;;;;7.70;2.90;;;23.60;72.00;;;;;;5092126;28;20077;-63
2022/08/18 07:13:26;;;;;;;7.20;4.05;;;23.60;71.90;;;;;;5093569;28;20036;-63
2022/08/18 07:15:53;;;;;;;8.50;3.17;;;23.70;71.90;;;;;;5092628;28;20082;-63
2022/08/18 07:18:26;;;;;;;7.05;3.45;;;23.60;72.40;;;;;;5091717;28;20482;-63
2022/08/18 07:20:55;;;;;;;7.43;3.47;;;23.70;71.80;;;;;;5093272;28;20040;-62
2022/08/18 07:23:30;;;;;;;7.28;3.20;;;23.60;71.70;;;;;;5090880;28;20074;-62
2022/08/18 07:26:22;;;;;;;7.03;3.05;;;23.70;71.80;;;;;;5090463;28;20074;-62
2022/08/18 07:28:49;;;;;;;9.77;3.13;;;23.60;71.60;;;;;;5086713;28;20087;-62
2022/08/18 07:31:26;;;;;;;8.43;3.28;;;23.60;71.70;;;;;;5091361;28;20048;-62
2022/08/18 07:33:59;;;;;;;10.85;3.35;;;23.70;71.70;;;;;;5074318;28;20408;-62
2022/08/18 07:36:29;;;;;;;4.20;2.80;;;23.70;71.70;;;;;;5087914;28;20075;-62
2022/08/18 07:39:07;;;;;;;7.72;3.30;;;23.70;71.70;;;;;;5089949;28;20048;-62
2022/08/18 07:41:40;;;;;;;7.00;3.20;;;23.70;71.60;;;;;;5074034;28;20036;-62
2022/08/18 07:44:36;;;;;;;5.45;2.83;;;23.70;71.60;;;;;;5090280;28;20076;-62
2022/08/18 07:47:11;;;;;;;7.57;2.95;;;23.70;71.50;;;;;;5091223;28;20075;-62
2022/08/18 07:49:44;;;;;;;8.57;2.80;;;23.70;71.70;;;;;;5091340;28;20039;-62
2022/08/18 07:52:29;;;;;;;7.45;3.10;;;23.70;71.60;;;;;;5091785;28;20044;-61
2022/08/18 07:55:23;;;;;;;5.05;2.70;;;23.70;71.50;;;;;;5092762;28;20086;-61
2022/08/18 07:57:52;;;;;;;8.88;3.53;;;23.70;71.50;;;;;;5091663;28;20036;-62
2022/08/18 08:00:37;;;;;;;7.13;3.10;;;23.70;71.60;;;;;;5092703;28;20051;-61
2022/08/18 08:03:14;;;;;;;5.85;3.10;;;23.70;71.70;;;;;;5092764;28;20050;-61
2022/08/18 08:06:14;;;;;;;9.00;3.57;;;23.70;71.70;;;;;;5091719;28;20090;-62
2022/08/18 08:08:50;;;;;;;7.97;3.40;;;23.70;71.70;;;;;;5090267;28;20040;-62
2022/08/18 08:11:36;;;;;;;7.25;3.15;;;23.70;71.70;;;;;;5090199;28;20046;-62
2022/08/18 08:14:12;;;;;;;4.75;3.28;;;23.70;71.80;;;;;;5091242;28;20479;-62
2022/08/18 08:16:47;;;;;;;8.02;3.28;;;23.70;71.80;;;;;;5091009;28;20063;-63
2022/08/18 08:19:33;;;;;;;6.32;3.15;;;23.70;71.80;;;;;;5091802;28;20076;-62
2022/08/18 08:22:16;;;;;;;7.22;3.30;;;23.70;71.70;;;;;;5091578;28;20480;-61
2022/08/18 08:25:06;;;;;;;6.03;3.08;;;23.70;71.70;;;;;;5091324;28;20043;-62
2022/08/18 08:27:56;;;;;;;7.15;3.50;;;23.70;71.80;;;;;;5092152;28;20483;-62
2022/08/18 08:30:23;;;;;;;5.82;3.08;;;23.70;71.70;;;;;;5093115;28;20353;-61
2022/08/18 08:33:09;;;;;;;7.75;2.80;;;23.70;71.80;;;;;;5094446;28;20036;-61
2022/08/18 08:35:38;;;;;;;5.82;3.30;;;23.70;71.80;;;;;;5096274;28;20491;-62
2022/08/18 08:38:27;;;;;;;6.85;3.20;;;23.70;71.80;;;;;;5078305;28;20067;-62
2022/08/18 08:40:58;;;;;;;7.25;3.35;;;23.70;71.80;;;;;;5090628;28;20051;-60
2022/08/18 08:43:28;;;;;;;5.90;2.80;;;23.70;71.90;;;;;;5095082;28;20135;-61
2022/08/18 08:46:07;;;;;;;8.63;3.22;;;23.70;71.90;;;;;;5095135;28;20067;-61
2022/08/18 08:48:35;;;;;;;5.07;2.85;;;23.70;71.90;;;;;;5079149;28;20093;-61
2022/08/18 08:51:10;;;;;;;6.03;2.95;;;23.70;72.00;;;;;;5094635;28;20418;-61
2022/08/18 08:53:48;;;;;;;5.20;2.92;;;23.70;72.10;;;;;;5094084;28;20040;-62
2022/08/18 08:56:15;;;;;;;7.00;2.70;;;23.70;72.20;;;;;;5094840;28;20042;-61
2022/08/18 08:59:20;;;;;;;5.65;3.00;;;23.70;72.10;;;;;;5094938;28;20036;-62
2022/08/18 09:02:01;;;;;;;10.93;2.92;;;23.70;72.10;;;;;;5036241;28;20046;-62
2022/08/18 09:04:47;;;;;;;16.80;3.85;;;23.70;72.20;;;;;;5052984;28;20043;-62
2022/08/18 09:07:38;;;;;;;15.27;3.35;;;23.70;72.20;;;;;;5082492;28;20060;-61
2022/08/18 09:10:06;;;;;;;9.55;2.63;;;23.80;72.20;;;;;;5095556;28;20052;-61
2022/08/18 09:13:00;;;;;;;9.75;3.15;;;23.70;72.20;;;;;;5095490;28;20490;-61
2022/08/18 09:15:44;;;;;;;12.68;3.17;;;23.70;72.30;;;;;;5094949;28;20044;-62
2022/08/18 09:18:27;;;;;;;9.25;2.63;;;23.70;72.20;;;;;;5094691;28;20047;-61
2022/08/18 09:21:17;;;;;;;8.90;2.90;;;23.70;72.10;;;;;;5095502;28;20492;-61
2022/08/18 09:23:45;;;;;;;10.38;2.92;;;23.70;72.20;;;;;;5113502;27;20043;-60
2022/08/18 09:26:22;;;;;;;13.23;2.95;;;23.80;72.50;;;;;;5094613;28;20059;-59
2022/08/18 09:28:57;;;;;;;19.00;4.20;;;23.70;72.60;;;;;;5090752;28;20400;-60
2022/08/18 09:31:24;;;;;;;10.57;3.15;;;23.80;72.80;;;;;;5085814;28;20048;-59
2022/08/18 09:34:08;;;;;;;7.72;2.80;;;23.70;72.70;;;;;;5076381;28;20412;-60
2022/08/18 09:36:42;;;;;;;16.92;3.22;;;23.70;72.70;;;;;;5075374;28;20495;-60
2022/08/18 09:42:44;;;;;;;7.57;2.50;;;23.70;72.60;;;;;;5092195;28;20043;-60
2022/08/18 09:45:30;;;;;;;5.13;2.30;;;23.70;72.70;;;;;;5093927;28;20044;-60
2022/08/18 09:48:20;;;;;;;4.45;1.80;;;23.70;72.50;;;;;;5093809;28;20139;-60
2022/08/18 09:50:54;;;;;;;6.00;1.90;;;23.70;72.40;;;;;;5091826;28;20097;-60
2022/08/18 09:53:45;;;;;;;3.72;1.80;;;23.70;72.20;;;;;;5094466;28;20134;-62
2022/08/18 09:56:12;;;;;;;10.07;2.65;;;23.70;72.50;;;;;;5094490;28;20098;-63
2022/08/18 09:58:49;;;;;;;6.65;2.78;;;23.70;72.80;;;;;;5092209;28;20063;-63
2022/08/18 10:01:22;;;;;;;6.30;1.83;;;23.70;72.90;;;;;;5094418;28;20044;-66
2022/08/18 10:04:12;;;;;;;6.95;2.10;;;23.70;72.90;;;;;;5092259;28;20117;-65
2022/08/18 10:06:39;;;;;;;5.28;2.63;;;23.70;73.00;;;;;;5094137;28;20105;-65
2022/08/18 10:09:24;;;;;;;9.02;2.33;;;23.90;73.00;;;;;;5093113;28;20048;-62
2022/08/18 10:12:02;;;;;;;6.90;2.30;;;23.90;73.30;;;;;;5091513;28;20566;-62
2022/08/18 10:14:46;;;;;;;4.95;1.73;;;23.90;73.00;;;;;;5093245;28;20494;-63
2022/08/18 10:17:36;;;;;;;7.13;2.60;;;24.00;73.00;;;;;;5092744;28;20092;-60
2022/08/18 10:20:29;;;;;;;7.15;2.13;;;24.00;72.90;;;;;;5093155;28;20040;-63
2022/08/18 10:22:55;;;;;;;6.85;2.30;;;24.00;73.00;;;;;;5077744;28;20040;-63
2022/08/18 10:25:36;;;;;;;4.82;2.30;;;24.00;73.00;;;;;;5075431;28;20122;-61
2022/08/18 10:28:04;;;;;;;7.82;2.50;;;24.00;72.70;;;;;;5092910;28;20098;-65
2022/08/18 10:30:33;;;;;;;6.35;2.80;;;24.00;73.00;;;;;;5075207;28;20064;-61
2022/08/18 10:33:06;;;;;;;11.27;4.28;;;24.00;73.00;;;;;;5093191;28;20044;-63
2022/08/18 10:35:37;;;;;;;8.40;3.47;;;24.00;73.20;;;;;;5092665;28;20048;-63
2022/08/18 10:38:09;;;;;;;8.00;3.15;;;24.00;73.50;;;;;;5092645;28;20046;-62
2022/08/18 10:40:35;;;;;;;5.65;2.92;;;24.00;73.60;;;;;;5091793;28;20480;-63
2022/08/18 10:43:08;;;;;;;6.70;3.10;;;24.00;73.70;;;;;;5109707;28;20068;-63
2022/08/18 10:45:35;;;;;;;7.55;3.15;;;24.00;74.00;;;;;;5091807;28;20487;-63
2022/08/18 10:48:04;;;;;;;5.18;2.60;;;24.00;74.10;;;;;;5093788;28;20048;-63
2022/08/18 10:50:46;;;;;;;6.30;2.83;;;24.00;74.10;;;;;;5092471;28;20055;-63
2022/08/18 10:53:11;;;;;;;6.03;2.67;;;24.00;74.00;;;;;;5092701;28;20046;-67
2022/08/18 10:55:53;;;;;;;7.60;2.75;;;24.00;74.00;;;;;;5093508;28;20040;-62
2022/08/18 10:58:43;;;;;;;9.43;2.95;;;24.00;73.80;;;;;;5075420;28;20047;-66
2022/08/18 11:01:38;;;;;;;7.75;2.67;;;24.00;73.90;;;;;;5089172;28;20036;-64
2022/08/18 11:04:06;;;;;;;8.73;3.25;;;24.00;73.80;;;;;;5027766;28;20180;-64
2022/08/18 11:06:47;;;;;;;7.75;2.58;;;24.00;73.80;;;;;;5093122;28;20031;-64
2022/08/18 11:09:14;;;;;;;7.65;3.00;;;24.00;73.80;;;;;;5089663;28;20129;-63
2022/08/18 11:11:42;;;;;;;6.53;2.50;;;24.00;73.90;;;;;;5074756;28;20083;-63
2022/08/18 11:14:26;;;;;;;6.80;2.65;;;24.00;73.90;;;;;;5091050;28;20047;-64
2022/08/18 11:17:24;;;;;;;8.38;2.60;;;24.10;73.90;;;;;;5089200;28;20071;-64
2022/08/18 11:19:49;;;;;;;6.13;2.90;;;24.00;73.90;;;;;;5091759;28;20498;-64
2022/08/18 11:22:22;;;;;;;4.70;2.60;;;24.00;73.90;;;;;;5090924;28;20043;-65
2022/08/18 11:24:48;;;;;;;5.35;2.53;;;24.00;73.90;;;;;;5092987;28;20040;-65
2022/08/18 11:27:19;;;;;;;6.10;2.50;;;24.10;73.90;;;;;;5091524;28;20506;-67
2022/08/18 11:29:45;;;;;;;6.82;2.50;;;24.10;73.90;;;;;;5090730;28;20059;-66
2022/08/18 11:32:24;;;;;;;5.90;2.67;;;24.10;73.90;;;;;;5092010;28;20054;-66
2022/08/18 11:35:15;;;;;;;5.97;2.45;;;24.10;73.80;;;;;;5091332;28;20048;-65
2022/08/18 11:37:40;;;;;;;6.80;2.38;;;24.10;73.80;;;;;;5093131;28;20062;-69
2022/08/18 11:40:09;;;;;;;4.25;2.25;;;24.10;73.80;;;;;;5093234;28;20115;-65
2022/08/18 11:42:38;;;;;;;5.90;2.38;;;24.10;73.80;;;;;;5091722;28;20516;-67
2022/08/18 11:45:20;;;;;;;7.20;3.08;;;24.10;73.70;;;;;;5093163;28;20048;-64
2022/08/18 11:48:13;;;;;;;6.15;2.33;;;24.10;73.50;;;;;;5092143;28;20048;-64
2022/08/18 11:50:54;;;;;;;5.68;2.58;;;24.00;73.50;;;;;;5091298;28;20036;-63
2022/08/18 11:53:31;;;;;;;5.53;2.55;;;24.10;73.50;;;;;;5090476;28;20511;-64
2022/08/18 11:56:18;;;;;;;5.45;2.22;;;24.10;73.60;;;;;;5089699;28;20083;-63
2022/08/18 11:59:03;;;;;;;7.07;2.30;;;24.10;73.50;;;;;;5091346;28;20040;-63
2022/08/18 12:01:32;;;;;;;6.53;2.50;;;24.10;73.60;;;;;;5091017;28;20044;-63
2022/08/18 12:04:12;;;;;;;8.50;2.70;;;24.10;73.50;;;;;;5090375;28;20086;-63
2022/08/18 12:06:40;;;;;;;5.55;2.40;;;24.10;73.30;;;;;;5091296;28;20468;-63
2022/08/18 12:09:22;;;;;;;5.18;2.22;;;24.10;73.20;;;;;;5091085;28;20050;-63
2022/08/18 12:11:49;;;;;;;4.65;2.38;;;24.20;73.00;;;;;;5088418;28;20489;-64
2022/08/18 12:14:20;;;;;;;6.72;2.10;;;24.20;72.80;;;;;;5091030;28;20050;-62
2022/08/18 12:16:46;;;;;;;5.18;1.90;;;24.20;72.60;;;;;;5088853;28;20090;-62
2022/08/18 12:19:12;;;;;;;4.93;1.80;;;24.20;72.30;;;;;;5090363;28;20048;-61
2022/08/18 12:21:38;;;;;;;4.00;1.90;;;24.20;72.00;;;;;;5092036;28;20036;-62
2022/08/18 12:24:05;;;;;;;5.13;1.58;;;24.20;72.30;;;;;;5092005;28;20040;-64
2022/08/18 12:26:30;;;;;;;3.20;1.38;;;24.10;71.20;;;;;;5091845;28;20048;-63
2022/08/18 12:28:56;;;;;;;2.05;1.30;;;24.10;71.00;;;;;;5092512;28;20058;-64
2022/08/18 12:31:21;;;;;;;4.28;1.60;;;24.10;70.70;;;;;;5090113;28;20144;-64
2022/08/18 12:33:47;;;;;;;5.72;1.70;;;24.10;70.50;;;;;;5092423;28;20044;-64
2022/08/18 12:36:12;;;;;;;2.20;1.30;;;24.10;70.40;;;;;;5092594;28;20424;-64
2022/08/18 12:38:38;;;;;;;3.35;1.30;;;24.10;70.20;;;;;;5073384;28;20068;-64
2022/08/18 12:41:04;;;;;;;3.47;1.35;;;24.20;70.10;;;;;;5074572;28;20521;-64
2022/08/18 12:43:31;;;;;;;4.07;1.40;;;24.20;69.90;;;;;;5091215;28;20055;-64
2022/08/18 12:45:58;;;;;;;3.55;1.40;;;24.20;69.80;;;;;;5091602;28;20048;-64
2022/08/18 12:48:25;;;;;;;4.53;1.20;;;24.30;69.90;;;;;;5090804;28;20048;-65
2022/08/18 12:50:51;;;;;;;5.38;1.38;;;24.20;69.80;;;;;;5091188;28;20847;-66
2022/08/18 12:53:16;;;;;;;3.70;1.42;;;24.30;69.70;;;;;;5091466;28;20123;-65
2022/08/18 12:55:42;;;;;;;5.32;1.58;;;24.30;70.00;;;;;;5091139;28;20130;-65
2022/08/18 12:58:08;;;;;;;4.45;1.60;;;24.30;70.30;;;;;;5092522;28;20130;-65
2022/08/18 13:00:34;;;;;;;4.55;1.58;;;24.40;70.30;;;;;;5089955;28;20131;-64
2022/08/18 13:02:59;;;;;;;3.70;1.40;;;24.30;70.20;;;;;;5091963;28;20040;-64
2022/08/18 13:05:25;;;;;;;3.55;1.50;;;24.40;70.40;;;;;;5090672;28;20040;-65
2022/08/18 13:07:51;;;;;;;3.13;1.15;;;24.40;70.40;;;;;;5091647;28;20043;-64
2022/08/18 13:10:16;;;;;;;3.60;1.40;;;24.50;70.40;;;;;;5090400;28;20044;-64
2022/08/18 13:12:42;;;;;;;2.85;1.48;;;24.50;70.10;;;;;;5092138;28;20048;-66
2022/08/18 13:15:09;;;;;;;5.45;1.63;;;24.50;70.00;;;;;;5091489;28;20043;-64
2022/08/18 13:17:36;;;;;;;4.95;1.95;;;24.50;69.80;;;;;;5094815;28;20044;-64
2022/08/18 13:20:09;;;;;;;4.80;1.60;;;24.50;69.60;;;;;;5090208;28;20036;-63
2022/08/18 13:22:39;;;;;;;3.47;1.55;;;24.50;69.50;;;;;;5094014;28;20036;-64
2022/08/18 13:25:06;;;;;;;4.32;1.90;;;24.60;69.40;;;;;;5093629;28;20036;-64
2022/08/18 13:27:32;;;;;;;2.50;1.60;;;24.60;69.70;;;;;;5091795;28;20137;-63
2022/08/18 13:29:58;;;;;;;5.00;1.83;;;24.60;68.80;;;;;;5093531;28;20067;-64
2022/08/18 13:32:24;;;;;;;3.65;1.60;;;24.50;68.60;;;;;;5093888;28;20071;-63